Maricopa, California
Current Conditions -  °F | °C
As of 2:54 AM on Thursday 27 Nov 2014 (Local Time) from KBFL Reporting Station
Haze Haze  
Wind Chill: 47°   Ceiling: Unl
Heat Index: 49°   Visibility: 4mi
Dew Point: 40°   Wind: 5mph
Humidity: 71%   Direction: 50°NE
Pressure: 30.2"   Gusts: NA
Location:  35.06°N, 119.4°W
Report Text: KBFL 271054Z AUTO 05004KT 4SM HZ CLR 09/04 A3020 RMK AO2 SLP223 T00940044
Loading
Personal Weather Stations






























Interactive Weather Map New forecast layout! Learn more

10-Day Weather Forecast

Advertisements
Track Severe Weather on mobile